sensor_id;sensor_type;location;lat;lon;timestamp;pressure;altitude;pressure_sealevel;temperature;humidity
71795;BME280;59641;45.188;5.712;2024-03-02T00:00:00;98407.03;;;12.14;48.67
71795;BME280;59641;45.188;5.712;2024-03-02T00:02:26;98412.16;;;12.15;48.62
71795;BME280;59641;45.188;5.712;2024-03-02T00:04:52;98410.03;;;12.18;48.52
71795;BME280;59641;45.188;5.712;2024-03-02T00:07:17;98414.31;;;12.19;48.50
71795;BME280;59641;45.188;5.712;2024-03-02T00:09:43;98408.16;;;12.18;48.68
71795;BME280;59641;45.188;5.712;2024-03-02T00:12:11;98420.22;;;12.15;48.25
71795;BME280;59641;45.188;5.712;2024-03-02T00:14:41;98414.53;;;12.12;48.43
71795;BME280;59641;45.188;5.712;2024-03-02T00:17:17;98418.84;;;12.13;48.45
71795;BME280;59641;45.188;5.712;2024-03-02T00:19:46;98419.38;;;12.10;48.71
71795;BME280;59641;45.188;5.712;2024-03-02T00:22:12;98417.97;;;12.07;48.69
71795;BME280;59641;45.188;5.712;2024-03-02T00:24:37;98415.56;;;12.06;48.60
71795;BME280;59641;45.188;5.712;2024-03-02T00:27:04;98413.09;;;12.04;48.94
71795;BME280;59641;45.188;5.712;2024-03-02T00:29:32;98406.91;;;12.04;48.52
71795;BME280;59641;45.188;5.712;2024-03-02T00:31:58;98416.06;;;12.03;48.58
71795;BME280;59641;45.188;5.712;2024-03-02T00:34:23;98414.13;;;11.98;48.67
71795;BME280;59641;45.188;5.712;2024-03-02T00:36:48;98414.38;;;11.97;48.43
71795;BME280;59641;45.188;5.712;2024-03-02T00:39:18;98418.13;;;11.96;48.53
71795;BME280;59641;45.188;5.712;2024-03-02T00:41:43;98420.25;;;11.93;48.50
71795;BME280;59641;45.188;5.712;2024-03-02T00:44:12;98417.00;;;11.91;48.75
71795;BME280;59641;45.188;5.712;2024-03-02T00:46:42;98421.31;;;11.92;48.72
71795;BME280;59641;45.188;5.712;2024-03-02T00:49:12;98426.13;;;11.90;48.67
71795;BME280;59641;45.188;5.712;2024-03-02T00:51:46;98431.25;;;11.92;48.78
71795;BME280;59641;45.188;5.712;2024-03-02T00:54:14;98427.50;;;11.93;48.94
71795;BME280;59641;45.188;5.712;2024-03-02T00:56:41;98424.50;;;11.89;48.40
71795;BME280;59641;45.188;5.712;2024-03-02T00:59:07;98420.09;;;11.83;48.38
71795;BME280;59641;45.188;5.712;2024-03-02T01:01:33;98429.97;;;11.78;48.60
71795;BME280;59641;45.188;5.712;2024-03-02T01:03:59;98431.06;;;11.77;48.91
71795;BME280;59641;45.188;5.712;2024-03-02T01:06:24;98433.72;;;11.77;48.95
71795;BME280;59641;45.188;5.712;2024-03-02T01:08:49;98434.78;;;11.76;49.06
71795;BME280;59641;45.188;5.712;2024-03-02T01:11:16;98437.75;;;11.74;48.82
71795;BME280;59641;45.188;5.712;2024-03-02T01:13:43;98430.91;;;11.66;49.02
71795;BME280;59641;45.188;5.712;2024-03-02T01:16:08;98432.47;;;11.62;49.05
71795;BME280;59641;45.188;5.712;2024-03-02T01:18:33;98425.72;;;11.60;49.34
71795;BME280;59641;45.188;5.712;2024-03-02T01:20:59;98419.00;;;11.57;49.44
71795;BME280;59641;45.188;5.712;2024-03-02T01:23:24;98419.47;;;11.54;49.51
71795;BME280;59641;45.188;5.712;2024-03-02T01:25:51;98410.59;;;11.54;49.96
71795;BME280;59641;45.188;5.712;2024-03-02T01:28:17;98431.28;;;11.53;50.02
71795;BME280;59641;45.188;5.712;2024-03-02T01:30:43;98424.84;;;11.54;50.02
71795;BME280;59641;45.188;5.712;2024-03-02T01:33:08;98432.09;;;11.54;49.92
71795;BME280;59641;45.188;5.712;2024-03-02T01:35:34;98432.59;;;11.50;50.42
71795;BME280;59641;45.188;5.712;2024-03-02T01:38:00;98424.78;;;11.49;50.59
71795;BME280;59641;45.188;5.712;2024-03-02T01:40:25;98430.72;;;11.51;50.36
71795;BME280;59641;45.188;5.712;2024-03-02T01:42:52;98418.94;;;11.52;50.92
71795;BME280;59641;45.188;5.712;2024-03-02T01:45:20;98415.16;;;11.53;50.58
71795;BME280;59641;45.188;5.712;2024-03-02T01:47:46;98415.16;;;11.53;50.64
71795;BME280;59641;45.188;5.712;2024-03-02T01:50:12;98410.88;;;11.52;50.37
71795;BME280;59641;45.188;5.712;2024-03-02T01:52:38;98408.19;;;11.52;50.60
71795;BME280;59641;45.188;5.712;2024-03-02T01:55:04;98407.59;;;11.50;50.68
71795;BME280;59641;45.188;5.712;2024-03-02T01:57:30;98405.97;;;11.49;50.84
71795;BME280;59641;45.188;5.712;2024-03-02T01:59:56;98421.03;;;11.50;50.67
71795;BME280;59641;45.188;5.712;2024-03-02T02:02:21;98413.22;;;11.48;50.53
71795;BME280;59641;45.188;5.712;2024-03-02T02:04:46;98417.22;;;11.46;50.86
71795;BME280;59641;45.188;5.712;2024-03-02T02:07:12;98403.78;;;11.46;51.05
71795;BME280;59641;45.188;5.712;2024-03-02T02:09:42;98405.41;;;11.47;50.86
71795;BME280;59641;45.188;5.712;2024-03-02T02:12:08;98401.91;;;11.46;50.91
71795;BME280;59641;45.188;5.712;2024-03-02T02:14:34;98411.03;;;11.45;51.21
71795;BME280;59641;45.188;5.712;2024-03-02T02:16:59;98399.72;;;11.43;51.10
71795;BME280;59641;45.188;5.712;2024-03-02T02:19:25;98402.66;;;11.42;51.20
71795;BME280;59641;45.188;5.712;2024-03-02T02:21:50;98399.72;;;11.43;51.13
71795;BME280;59641;45.188;5.712;2024-03-02T02:24:15;98388.66;;;11.40;51.28
71795;BME280;59641;45.188;5.712;2024-03-02T02:26:41;98405.59;;;11.40;51.31
71795;BME280;59641;45.188;5.712;2024-03-02T02:29:06;98399.16;;;11.41;51.33
71795;BME280;59641;45.188;5.712;2024-03-02T02:31:41;98391.66;;;11.43;51.21
71795;BME280;59641;45.188;5.712;2024-03-02T02:34:07;98381.34;;;11.35;51.40
71795;BME280;59641;45.188;5.712;2024-03-02T02:36:37;98383.56;;;11.38;51.62
71795;BME280;59641;45.188;5.712;2024-03-02T02:39:05;98389.50;;;11.40;51.39
71795;BME280;59641;45.188;5.712;2024-03-02T02:41:32;98385.72;;;11.41;51.68
71795;BME280;59641;45.188;5.712;2024-03-02T02:43:57;98380.94;;;11.43;51.73
71795;BME280;59641;45.188;5.712;2024-03-02T02:46:23;98376.94;;;11.46;51.71
71795;BME280;59641;45.188;5.712;2024-03-02T02:48:48;98367.56;;;11.48;51.58
71795;BME280;59641;45.188;5.712;2024-03-02T02:51:13;98377.56;;;11.53;51.70
71795;BME280;59641;45.188;5.712;2024-03-02T02:53:39;98379.44;;;11.52;51.32
71795;BME280;59641;45.188;5.712;2024-03-02T02:56:07;98383.72;;;11.54;51.44
71795;BME280;59641;45.188;5.712;2024-03-02T02:58:32;98381.84;;;11.54;51.58
71795;BME280;59641;45.188;5.712;2024-03-02T03:00:57;98372.75;;;11.55;51.27
71795;BME280;59641;45.188;5.712;2024-03-02T03:03:23;98376.97;;;11.51;51.51
71795;BME280;59641;45.188;5.712;2024-03-02T03:05:48;98379.09;;;11.49;51.45
71795;BME280;59641;45.188;5.712;2024-03-02T03:08:14;98372.34;;;11.46;51.34
71795;BME280;59641;45.188;5.712;2024-03-02T03:10:41;98370.97;;;11.44;51.43
71795;BME280;59641;45.188;5.712;2024-03-02T03:13:10;98363.16;;;11.42;51.27
71795;BME280;59641;45.188;5.712;2024-03-02T03:15:35;98362.53;;;11.35;51.27
71795;BME280;59641;45.188;5.712;2024-03-02T03:18:04;98371.59;;;11.29;51.53
71795;BME280;59641;45.188;5.712;2024-03-02T03:20:30;98369.44;;;11.26;51.57
71795;BME280;59641;45.188;5.712;2024-03-02T03:22:56;98366.41;;;11.22;51.55
71795;BME280;59641;45.188;5.712;2024-03-02T03:25:22;98374.97;;;11.19;51.43
71795;BME280;59641;45.188;5.712;2024-03-02T03:27:47;98371.16;;;11.15;51.96
71795;BME280;59641;45.188;5.712;2024-03-02T03:30:13;98364.97;;;11.15;51.58
71795;BME280;59641;45.188;5.712;2024-03-02T03:32:38;98362.22;;;11.09;51.88
71795;BME280;59641;45.188;5.712;2024-03-02T03:35:04;98354.16;;;11.09;51.86
71795;BME280;59641;45.188;5.712;2024-03-02T03:37:30;98350.09;;;11.07;51.84
71795;BME280;59641;45.188;5.712;2024-03-02T03:39:59;98341.72;;;11.03;52.19
71795;BME280;59641;45.188;5.712;2024-03-02T03:42:24;98342.84;;;11.07;52.42
71795;BME280;59641;45.188;5.712;2024-03-02T03:44:50;98344.22;;;11.10;52.28
71795;BME280;59641;45.188;5.712;2024-03-02T03:47:15;98358.47;;;11.11;52.38
71795;BME280;59641;45.188;5.712;2024-03-02T03:49:41;98350.97;;;11.13;52.50
71795;BME280;59641;45.188;5.712;2024-03-02T03:52:06;98349.66;;;11.15;52.61
71795;BME280;59641;45.188;5.712;2024-03-02T03:54:31;98348.13;;;11.19;52.60
71795;BME280;59641;45.188;5.712;2024-03-02T03:56:57;98344.69;;;11.24;52.61
71795;BME280;59641;45.188;5.712;2024-03-02T03:59:22;98338.50;;;11.23;52.25
71795;BME280;59641;45.188;5.712;2024-03-02T04:01:47;98336.88;;;11.22;52.37
71795;BME280;59641;45.188;5.712;2024-03-02T04:04:13;98342.00;;;11.24;52.25
71795;BME280;59641;45.188;5.712;2024-03-02T04:06:38;98337.44;;;11.24;52.10
71795;BME280;59641;45.188;5.712;2024-03-02T04:09:04;98330.19;;;11.25;52.14
71795;BME280;59641;45.188;5.712;2024-03-02T04:11:29;98330.19;;;11.25;52.14
71795;BME280;59641;45.188;5.712;2024-03-02T04:13:55;98318.06;;;11.22;51.97
71795;BME280;59641;45.188;5.712;2024-03-02T04:16:21;98333.63;;;11.20;52.29
71795;BME280;59641;45.188;5.712;2024-03-02T04:18:46;98336.06;;;11.22;52.17
71795;BME280;59641;45.188;5.712;2024-03-02T04:21:11;98328.81;;;11.22;52.01
71795;BME280;59641;45.188;5.712;2024-03-02T04:23:37;98322.63;;;11.22;52.21
71795;BME280;59641;45.188;5.712;2024-03-02T04:26:02;98320.25;;;11.25;52.29
71795;BME280;59641;45.188;5.712;2024-03-02T04:28:27;98317.34;;;11.27;52.03
71795;BME280;59641;45.188;5.712;2024-03-02T04:30:53;98322.47;;;11.28;51.77
71795;BME280;59641;45.188;5.712;2024-03-02T04:33:18;98325.09;;;11.23;51.75
71795;BME280;59641;45.188;5.712;2024-03-02T04:35:43;98317.78;;;11.19;52.02
71795;BME280;59641;45.188;5.712;2024-03-02T04:38:08;98317.44;;;11.15;52.05
71795;BME280;59641;45.188;5.712;2024-03-02T04:40:34;98313.38;;;11.13;52.05
71795;BME280;59641;45.188;5.712;2024-03-02T04:42:59;98321.69;;;11.11;52.36
71795;BME280;59641;45.188;5.712;2024-03-02T04:45:24;98333.81;;;11.14;52.56
71795;BME280;59641;45.188;5.712;2024-03-02T04:47:50;98333.56;;;11.15;52.25
71795;BME280;59641;45.188;5.712;2024-03-02T04:50:15;98329.00;;;11.16;52.42
71795;BME280;59641;45.188;5.712;2024-03-02T04:52:40;98331.69;;;11.16;52.16
71795;BME280;59641;45.188;5.712;2024-03-02T04:55:06;98326.56;;;11.14;52.13
71795;BME280;59641;45.188;5.712;2024-03-02T04:57:50;98317.38;;;11.10;52.09
71795;BME280;59641;45.188;5.712;2024-03-02T05:00:19;98321.63;;;11.06;52.38
71795;BME280;59641;45.188;5.712;2024-03-02T05:02:44;98314.00;;;10.98;51.94
71795;BME280;59641;45.188;5.712;2024-03-02T05:05:10;98318.75;;;10.91;52.21
71795;BME280;59641;45.188;5.712;2024-03-02T05:07:35;98309.56;;;10.86;52.19
71795;BME280;59641;45.188;5.712;2024-03-02T05:10:01;98303.88;;;10.83;52.31
71795;BME280;59641;45.188;5.712;2024-03-02T05:12:26;98314.84;;;10.81;52.61
71795;BME280;59641;45.188;5.712;2024-03-02T05:15:14;98324.78;;;10.81;52.75
71795;BME280;59641;45.188;5.712;2024-03-02T05:17:41;98330.72;;;10.83;52.60
71795;BME280;59641;45.188;5.712;2024-03-02T05:20:10;98319.72;;;10.84;52.80
71795;BME280;59641;45.188;5.712;2024-03-02T05:22:36;98310.63;;;10.85;52.95
71795;BME280;59641;45.188;5.712;2024-03-02T05:25:05;98304.97;;;10.87;52.86
71795;BME280;59641;45.188;5.712;2024-03-02T05:27:31;98306.88;;;10.86;52.92
71795;BME280;59641;45.188;5.712;2024-03-02T05:29:59;98310.34;;;10.87;52.76
71795;BME280;59641;45.188;5.712;2024-03-02T05:32:25;98309.31;;;10.88;53.34
71795;BME280;59641;45.188;5.712;2024-03-02T05:34:50;98309.88;;;10.90;53.05
71795;BME280;59641;45.188;5.712;2024-03-02T05:37:18;98301.31;;;10.93;53.06
71795;BME280;59641;45.188;5.712;2024-03-02T05:39:43;98290.09;;;10.96;53.01
71795;BME280;59641;45.188;5.712;2024-03-02T05:42:09;98291.16;;;10.95;52.93
71795;BME280;59641;45.188;5.712;2024-03-02T05:44:38;98293.03;;;10.95;52.86
71795;BME280;59641;45.188;5.712;2024-03-02T05:47:03;98300.75;;;10.91;53.16
71795;BME280;59641;45.188;5.712;2024-03-02T05:49:29;98306.69;;;10.93;53.03
71795;BME280;59641;45.188;5.712;2024-03-02T05:51:55;98308.06;;;10.96;52.86
71795;BME280;59641;45.188;5.712;2024-03-02T05:54:20;98299.78;;;10.97;53.06
71795;BME280;59641;45.188;5.712;2024-03-02T05:56:45;98289.84;;;10.98;52.91
71795;BME280;59641;45.188;5.712;2024-03-02T05:59:10;98291.97;;;10.96;52.80
71795;BME280;59641;45.188;5.712;2024-03-02T06:01:43;98289.50;;;10.94;53.00
71795;BME280;59641;45.188;5.712;2024-03-02T06:04:11;98285.47;;;10.92;53.05
71795;BME280;59641;45.188;5.712;2024-03-02T06:06:37;98290.81;;;10.92;52.83
71795;BME280;59641;45.188;5.712;2024-03-02T06:09:03;98280.03;;;10.86;52.93
71795;BME280;59641;45.188;5.712;2024-03-02T06:11:38;98279.47;;;10.84;52.97
71795;BME280;59641;45.188;5.712;2024-03-02T06:14:07;98283.44;;;10.82;53.18
71795;BME280;59641;45.188;5.712;2024-03-02T06:16:33;98283.16;;;10.78;53.16
71795;BME280;59641;45.188;5.712;2024-03-02T06:18:58;98272.41;;;10.78;53.24
71795;BME280;59641;45.188;5.712;2024-03-02T06:21:24;98267.28;;;10.77;53.43
71795;BME280;59641;45.188;5.712;2024-03-02T06:23:50;98274.28;;;10.78;53.30
71795;BME280;59641;45.188;5.712;2024-03-02T06:26:15;98261.13;;;10.76;53.18
71795;BME280;59641;45.188;5.712;2024-03-02T06:28:41;98265.91;;;10.74;53.60
71795;BME280;59641;45.188;5.712;2024-03-02T06:31:06;98268.34;;;10.76;53.65
71795;BME280;59641;45.188;5.712;2024-03-02T06:33:32;98257.63;;;10.76;53.39
71795;BME280;59641;45.188;5.712;2024-03-02T06:35:57;98258.13;;;10.73;53.58
71795;BME280;59641;45.188;5.712;2024-03-02T06:38:22;98253.31;;;10.75;53.58
71795;BME280;59641;45.188;5.712;2024-03-02T06:40:47;98260.53;;;10.74;53.50
71795;BME280;59641;45.188;5.712;2024-03-02T06:43:13;98265.91;;;10.74;53.51
71795;BME280;59641;45.188;5.712;2024-03-02T06:45:38;98258.66;;;10.75;53.76
71795;BME280;59641;45.188;5.712;2024-03-02T06:48:04;98252.00;;;10.77;53.66
71795;BME280;59641;45.188;5.712;2024-03-02T06:50:29;98247.69;;;10.76;53.56
71795;BME280;59641;45.188;5.712;2024-03-02T06:52:55;98245.75;;;10.72;53.36
71795;BME280;59641;45.188;5.712;2024-03-02T06:55:21;98247.31;;;10.68;53.58
71795;BME280;59641;45.188;5.712;2024-03-02T06:57:46;98238.72;;;10.65;53.83
71795;BME280;59641;45.188;5.712;2024-03-02T07:00:12;98238.94;;;10.64;53.65
71795;BME280;59641;45.188;5.712;2024-03-02T07:02:39;98234.84;;;10.56;53.87
71795;BME280;59641;45.188;5.712;2024-03-02T07:05:06;98242.81;;;10.51;53.64
71795;BME280;59641;45.188;5.712;2024-03-02T07:07:33;98243.63;;;10.52;53.85
71795;BME280;59641;45.188;5.712;2024-03-02T07:10:00;98233.94;;;10.51;54.02
71795;BME280;59641;45.188;5.712;2024-03-02T07:12:25;98235.22;;;10.48;54.30
71795;BME280;59641;45.188;5.712;2024-03-02T07:14:51;98223.41;;;10.44;53.96
71795;BME280;59641;45.188;5.712;2024-03-02T07:17:33;98230.16;;;10.30;54.08
71795;BME280;59641;45.188;5.712;2024-03-02T07:19:59;98228.41;;;10.23;54.72
71795;BME280;59641;45.188;5.712;2024-03-02T07:22:24;98221.19;;;10.24;54.23
71795;BME280;59641;45.188;5.712;2024-03-02T07:24:49;98222.50;;;10.21;54.26
71795;BME280;59641;45.188;5.712;2024-03-02T07:27:16;98216.81;;;10.18;54.67
71795;BME280;59641;45.188;5.712;2024-03-02T07:29:42;98213.06;;;10.19;54.49
71795;BME280;59641;45.188;5.712;2024-03-02T07:32:08;98213.41;;;10.22;54.65
71795;BME280;59641;45.188;5.712;2024-03-02T07:34:34;98220.38;;;10.23;54.70
71795;BME280;59641;45.188;5.712;2024-03-02T07:37:00;98211.03;;;10.26;54.85
71795;BME280;59641;45.188;5.712;2024-03-02T07:39:26;98202.28;;;10.31;54.67
71795;BME280;59641;45.188;5.712;2024-03-02T07:41:51;98212.28;;;10.35;54.53
71795;BME280;59641;45.188;5.712;2024-03-02T07:44:17;98209.09;;;10.38;54.80
71795;BME280;59641;45.188;5.712;2024-03-02T07:46:44;98200.56;;;10.41;54.70
71795;BME280;59641;45.188;5.712;2024-03-02T07:49:12;98201.09;;;10.43;54.60
71795;BME280;59641;45.188;5.712;2024-03-02T07:51:38;98200.06;;;10.44;54.60
71795;BME280;59641;45.188;5.712;2024-03-02T07:54:04;98184.28;;;10.48;54.59
71795;BME280;59641;45.188;5.712;2024-03-02T07:56:29;98188.28;;;10.45;54.57
71795;BME280;59641;45.188;5.712;2024-03-02T07:58:55;98182.34;;;10.43;54.39
71795;BME280;59641;45.188;5.712;2024-03-02T08:01:22;98186.09;;;10.42;54.55
71795;BME280;59641;45.188;5.712;2024-03-02T08:03:48;98182.34;;;10.43;54.76
71795;BME280;59641;45.188;5.712;2024-03-02T08:06:15;98179.66;;;10.43;54.75
71795;BME280;59641;45.188;5.712;2024-03-02T08:08:41;98180.72;;;10.42;54.93
71795;BME280;59641;45.188;5.712;2024-03-02T08:11:06;98178.03;;;10.42;54.77
71795;BME280;59641;45.188;5.712;2024-03-02T08:13:31;98174.84;;;10.45;54.78
71795;BME280;59641;45.188;5.712;2024-03-02T08:15:57;98172.97;;;10.46;55.09
71795;BME280;59641;45.188;5.712;2024-03-02T08:18:22;98168.75;;;10.50;54.85
71795;BME280;59641;45.188;5.712;2024-03-02T08:20:48;98163.72;;;10.54;54.74
71795;BME280;59641;45.188;5.712;2024-03-02T08:23:13;98168.56;;;10.57;55.04
71795;BME280;59641;45.188;5.712;2024-03-02T08:25:38;98157.91;;;10.62;54.80
71795;BME280;59641;45.188;5.712;2024-03-02T08:28:04;98156.94;;;10.68;54.69
71795;BME280;59641;45.188;5.712;2024-03-02T08:30:29;98160.47;;;10.74;54.53
71795;BME280;59641;45.188;5.712;2024-03-02T08:32:55;98151.34;;;10.75;54.63
71795;BME280;59641;45.188;5.712;2024-03-02T08:35:20;98142.81;;;10.78;54.55
71795;BME280;59641;45.188;5.712;2024-03-02T08:37:47;98142.31;;;10.81;54.29
71795;BME280;59641;45.188;5.712;2024-03-02T08:40:13;98135.38;;;10.85;54.13
71795;BME280;59641;45.188;5.712;2024-03-02T08:42:39;98125.75;;;10.89;54.25
71795;BME280;59641;45.188;5.712;2024-03-02T08:45:04;98117.75;;;10.94;54.24
71795;BME280;59641;45.188;5.712;2024-03-02T08:47:31;98117.31;;;11.02;54.10
71795;BME280;59641;45.188;5.712;2024-03-02T08:49:56;98113.34;;;11.10;53.87
71795;BME280;59641;45.188;5.712;2024-03-02T08:52:21;98110.47;;;11.17;53.60
71795;BME280;59641;45.188;5.712;2024-03-02T08:54:47;98112.97;;;11.23;53.55
71795;BME280;59641;45.188;5.712;2024-03-02T08:57:12;98110.88;;;11.30;53.51
71795;BME280;59641;45.188;5.712;2024-03-02T08:59:37;98103.13;;;11.39;53.35
71795;BME280;59641;45.188;5.712;2024-03-02T09:02:03;98100.25;;;11.46;53.21
71795;BME280;59641;45.188;5.712;2024-03-02T09:04:29;98093.59;;;11.54;53.25
71795;BME280;59641;45.188;5.712;2024-03-02T09:06:54;98086.38;;;11.59;52.81
71795;BME280;59641;45.188;5.712;2024-03-02T09:09:19;98083.47;;;11.66;52.88
71795;BME280;59641;45.188;5.712;2024-03-02T09:11:46;98081.38;;;11.73;52.95
71795;BME280;59641;45.188;5.712;2024-03-02T09:14:12;98074.16;;;11.79;52.63
71795;BME280;59641;45.188;5.712;2024-03-02T09:16:37;98082.81;;;11.86;52.55
71795;BME280;59641;45.188;5.712;2024-03-02T09:19:03;98071.84;;;11.92;52.48
71795;BME280;59641;45.188;5.712;2024-03-02T09:21:28;98062.19;;;11.97;52.44
71795;BME280;59641;45.188;5.712;2024-03-02T09:23:55;98053.09;;;12.03;52.26
71795;BME280;59641;45.188;5.712;2024-03-02T09:26:20;98046.91;;;12.07;52.01
71795;BME280;59641;45.188;5.712;2024-03-02T09:28:45;98042.38;;;12.13;52.32
71795;BME280;59641;45.188;5.712;2024-03-02T09:31:11;98039.72;;;12.18;52.13
71795;BME280;59641;45.188;5.712;2024-03-02T09:33:37;98032.47;;;12.24;52.06
71795;BME280;59641;45.188;5.712;2024-03-02T09:36:04;98031.19;;;12.31;52.21
71795;BME280;59641;45.188;5.712;2024-03-02T09:38:32;98035.47;;;12.38;51.71
71795;BME280;59641;45.188;5.712;2024-03-02T09:40:58;98032.25;;;12.41;51.62
71795;BME280;59641;45.188;5.712;2024-03-02T09:43:23;98026.88;;;12.46;51.70
71795;BME280;59641;45.188;5.712;2024-03-02T09:45:49;98021.53;;;12.51;51.74
71795;BME280;59641;45.188;5.712;2024-03-02T09:48:15;98029.63;;;12.56;51.48
71795;BME280;59641;45.188;5.712;2024-03-02T09:50:43;98024.81;;;12.63;51.68
71795;BME280;59641;45.188;5.712;2024-03-02T09:53:09;98022.13;;;12.68;51.33
71795;BME280;59641;45.188;5.712;2024-03-02T09:55:35;98017.53;;;12.74;51.34
71795;BME280;59641;45.188;5.712;2024-03-02T09:58:01;98014.06;;;12.78;51.30
71795;BME280;59641;45.188;5.712;2024-03-02T10:00:26;98005.19;;;12.83;51.21
71795;BME280;59641;45.188;5.712;2024-03-02T10:02:53;98001.94;;;12.86;51.21
71795;BME280;59641;45.188;5.712;2024-03-02T10:05:26;97996.84;;;12.90;51.05
71795;BME280;59641;45.188;5.712;2024-03-02T10:08:02;97991.72;;;12.93;51.17
71795;BME280;59641;45.188;5.712;2024-03-02T10:10:37;97979.88;;;12.94;51.08
71795;BME280;59641;45.188;5.712;2024-03-02T10:13:07;97992.53;;;12.99;50.84
71795;BME280;59641;45.188;5.712;2024-03-02T10:15:34;97974.22;;;13.01;50.65
71795;BME280;59641;45.188;5.712;2024-03-02T10:17:59;97977.44;;;13.03;50.62
71795;BME280;59641;45.188;5.712;2024-03-02T10:20:26;97958.09;;;13.06;50.57
71795;BME280;59641;45.188;5.712;2024-03-02T10:22:54;97968.03;;;13.06;50.28
71795;BME280;59641;45.188;5.712;2024-03-02T10:25:32;97954.31;;;13.07;50.50
71795;BME280;59641;45.188;5.712;2024-03-02T10:27:58;97949.44;;;13.09;50.50
71795;BME280;59641;45.188;5.712;2024-03-02T10:30:25;97950.78;;;13.12;50.31
71795;BME280;59641;45.188;5.712;2024-03-02T10:32:52;97946.75;;;13.14;50.59
71795;BME280;59641;45.188;5.712;2024-03-02T10:35:17;97939.47;;;13.15;50.20
71795;BME280;59641;45.188;5.712;2024-03-02T10:37:43;97929.53;;;13.20;50.46
71795;BME280;59641;45.188;5.712;2024-03-02T10:40:10;97944.03;;;13.25;50.04
71795;BME280;59641;45.188;5.712;2024-03-02T10:42:37;97932.47;;;13.29;50.19
71795;BME280;59641;45.188;5.712;2024-03-02T10:45:06;97925.22;;;13.35;50.13
71795;BME280;59641;45.188;5.712;2024-03-02T10:47:33;97930.28;;;13.41;50.02
71795;BME280;59641;45.188;5.712;2024-03-02T10:50:00;97920.34;;;13.47;49.83
71795;BME280;59641;45.188;5.712;2024-03-02T10:52:26;97894.97;;;13.53;49.74
71795;BME280;59641;45.188;5.712;2024-03-02T10:54:52;97890.66;;;13.57;49.80
71795;BME280;59641;45.188;5.712;2024-03-02T10:57:21;97888.72;;;13.63;49.39
71795;BME280;59641;45.188;5.712;2024-03-02T10:59:53;97879.81;;;13.68;48.81
71795;BME280;59641;45.188;5.712;2024-03-02T11:02:23;97873.59;;;13.72;49.12
71795;BME280;59641;45.188;5.712;2024-03-02T11:04:50;97861.44;;;13.80;49.16
71795;BME280;59641;45.188;5.712;2024-03-02T11:07:19;97854.41;;;13.84;48.81
71795;BME280;59641;45.188;5.712;2024-03-02T11:09:58;97848.97;;;13.89;48.72
71795;BME280;59641;45.188;5.712;2024-03-02T11:12:38;97832.78;;;13.94;48.62
71795;BME280;59641;45.188;5.712;2024-03-02T11:15:10;97827.06;;;14.01;48.54
71795;BME280;59641;45.188;5.712;2024-03-02T11:17:38;97828.66;;;14.07;48.58
71795;BME280;59641;45.188;5.712;2024-03-02T11:20:06;97825.34;;;14.15;48.14
71795;BME280;59641;45.188;5.712;2024-03-02T11:22:35;97806.16;;;14.22;48.21
71795;BME280;59641;45.188;5.712;2024-03-02T11:25:01;97812.03;;;14.29;47.84
71795;BME280;59641;45.188;5.712;2024-03-02T11:33:05;97800.28;;;14.49;47.37
71795;BME280;59641;45.188;5.712;2024-03-02T11:35:33;97792.41;;;14.58;47.09
71795;BME280;59641;45.188;5.712;2024-03-02T11:37:58;97775.59;;;14.66;47.12
71795;BME280;59641;45.188;5.712;2024-03-02T11:40:28;97771.97;;;14.76;46.77
71795;BME280;59641;45.188;5.712;2024-03-02T11:42:53;97770.25;;;14.85;46.61
71795;BME280;59641;45.188;5.712;2024-03-02T11:45:25;97773.66;;;14.96;46.75
71795;BME280;59641;45.188;5.712;2024-03-02T11:47:53;97757.63;;;15.04;45.32
71795;BME280;59641;45.188;5.712;2024-03-02T11:53:00;97757.72;;;15.18;45.25
71795;BME280;59641;45.188;5.712;2024-03-02T11:55:26;97755.75;;;15.24;45.46
71795;BME280;59641;45.188;5.712;2024-03-02T11:57:55;97733.28;;;15.28;45.04
71795;BME280;59641;45.188;5.712;2024-03-02T12:00:20;97734.59;;;15.31;44.60
71795;BME280;59641;45.188;5.712;2024-03-02T12:02:47;97741.84;;;15.36;44.65
71795;BME280;59641;45.188;5.712;2024-03-02T12:05:24;97725.53;;;15.41;44.89
71795;BME280;59641;45.188;5.712;2024-03-02T12:07:55;97720.88;;;15.46;45.12
71795;BME280;59641;45.188;5.712;2024-03-02T12:10:21;97712.72;;;15.51;44.46
71795;BME280;59641;45.188;5.712;2024-03-02T12:12:46;97702.91;;;15.55;44.36
71795;BME280;59641;45.188;5.712;2024-03-02T12:15:11;97698.25;;;15.61;44.21
71795;BME280;59641;45.188;5.712;2024-03-02T12:17:37;97700.06;;;15.66;43.40
71795;BME280;59641;45.188;5.712;2024-03-02T12:20:05;97683.78;;;15.71;43.64
71795;BME280;59641;45.188;5.712;2024-03-02T12:22:30;97689.41;;;15.74;44.16
71795;BME280;59641;45.188;5.712;2024-03-02T12:24:56;97681.19;;;15.80;43.87
71795;BME280;59641;45.188;5.712;2024-03-02T12:27:21;97667.81;;;15.88;43.35
71795;BME280;59641;45.188;5.712;2024-03-02T12:29:47;97665.31;;;15.92;42.34
71795;BME280;59641;45.188;5.712;2024-03-02T12:32:13;97664.16;;;15.98;42.29
71795;BME280;59641;45.188;5.712;2024-03-02T12:34:39;97664.28;;;16.07;42.59
71795;BME280;59641;45.188;5.712;2024-03-02T12:37:04;97676.81;;;16.16;42.44
71795;BME280;59641;45.188;5.712;2024-03-02T12:39:30;97666.09;;;16.25;41.93
71795;BME280;59641;45.188;5.712;2024-03-02T12:41:57;97669.44;;;16.36;41.21
71795;BME280;59641;45.188;5.712;2024-03-02T12:44:23;97677.38;;;16.46;41.73
71795;BME280;59641;45.188;5.712;2024-03-02T12:46:48;97665.81;;;16.54;38.96
71795;BME280;59641;45.188;5.712;2024-03-02T12:49:15;97659.13;;;16.66;39.01
71795;BME280;59641;45.188;5.712;2024-03-02T12:51:42;97672.44;;;16.76;40.96
71795;BME280;59641;45.188;5.712;2024-03-02T12:54:08;97671.19;;;16.87;39.42
71795;BME280;59641;45.188;5.712;2024-03-02T12:56:35;97679.09;;;16.97;38.33
71795;BME280;59641;45.188;5.712;2024-03-02T12:59:01;97675.06;;;17.09;39.26
71795;BME280;59641;45.188;5.712;2024-03-02T13:01:26;97674.06;;;17.18;38.61
71795;BME280;59641;45.188;5.712;2024-03-02T13:03:55;97673.81;;;17.29;39.16